createdAt,value
2023-05-21T00:00:03.612Z,14.88
2023-05-21T00:01:04.248Z,14.88
2023-05-21T00:03:03.507Z,14.88
2023-05-21T00:04:04.379Z,14.81
2023-05-21T00:06:04.060Z,14.81
2023-05-21T00:07:04.089Z,14.81
2023-05-21T00:08:04.029Z,14.81
2023-05-21T00:10:03.861Z,14.75
2023-05-21T00:11:03.607Z,14.75
2023-05-21T00:13:05.309Z,14.69
2023-05-21T00:16:04.026Z,14.69
2023-05-21T00:17:04.108Z,14.69
2023-05-21T00:18:04.200Z,14.62
2023-05-21T00:19:04.551Z,14.62
2023-05-21T00:20:04.352Z,14.62
2023-05-21T00:22:03.726Z,14.62
2023-05-21T00:24:03.868Z,14.56
2023-05-21T00:25:03.935Z,14.50
2023-05-21T00:26:03.640Z,14.56
2023-05-21T00:27:04.334Z,14.56
2023-05-21T00:28:04.104Z,14.50
2023-05-21T00:29:04.168Z,14.50
2023-05-21T00:31:03.599Z,14.50
2023-05-21T00:32:04.280Z,14.50
2023-05-21T00:34:04.056Z,14.50
2023-05-21T00:35:03.685Z,14.50
2023-05-21T00:36:04.417Z,14.50
2023-05-21T00:37:03.683Z,14.50
2023-05-21T00:38:03.715Z,14.50
2023-05-21T00:39:04.338Z,14.50
2023-05-21T00:40:04.434Z,14.50
2023-05-21T00:41:04.503Z,14.44
2023-05-21T00:44:04.157Z,14.44
2023-05-21T00:46:04.121Z,14.44
2023-05-21T00:47:03.701Z,14.38
2023-05-21T00:48:04.295Z,14.44
2023-05-21T00:49:04.400Z,14.44
2023-05-21T00:51:03.539Z,14.38
2023-05-21T00:53:03.630Z,14.38
2023-05-21T00:54:04.328Z,14.31
2023-05-21T00:55:04.005Z,14.31
2023-05-21T00:56:04.078Z,14.31
2023-05-21T00:57:03.762Z,14.31
2023-05-21T00:58:03.788Z,14.31
2023-05-21T00:59:04.241Z,14.31
2023-05-21T01:00:04.172Z,14.31
2023-05-21T01:01:04.287Z,14.31
2023-05-21T01:02:03.958Z,14.25
2023-05-21T01:03:03.685Z,14.25
2023-05-21T01:06:04.329Z,14.19
2023-05-21T01:08:03.770Z,14.19
2023-05-21T01:09:05.038Z,14.19
2023-05-21T01:10:04.241Z,14.12
2023-05-21T01:11:03.856Z,14.12
2023-05-21T01:12:04.020Z,14.12
2023-05-21T01:13:03.452Z,14.06
2023-05-21T01:14:04.169Z,14.12
2023-05-21T01:15:03.680Z,14.06
2023-05-21T01:16:03.706Z,14.06
2023-05-21T01:17:03.743Z,14.06
2023-05-21T01:18:04.384Z,14.06
2023-05-21T01:19:04.211Z,14.06
2023-05-21T01:20:04.178Z,14.00
2023-05-21T01:21:03.852Z,14.00
2023-05-21T01:22:03.842Z,14.00
2023-05-21T01:23:03.866Z,14.00
2023-05-21T01:24:04.351Z,14.00
2023-05-21T01:26:04.092Z,13.94
2023-05-21T01:28:04.317Z,13.88
2023-05-21T01:30:04.480Z,13.88
2023-05-21T01:31:04.004Z,13.88
2023-05-21T01:33:03.668Z,13.88
2023-05-21T01:34:03.690Z,13.88
2023-05-21T01:36:04.493Z,13.88
2023-05-21T01:37:04.172Z,13.88
2023-05-21T01:38:03.781Z,13.81
2023-05-21T01:39:04.238Z,13.81
2023-05-21T01:40:03.779Z,13.75
2023-05-21T01:42:04.155Z,13.75
2023-05-21T01:43:04.245Z,13.75
2023-05-21T01:44:04.248Z,13.75
2023-05-21T01:45:04.244Z,13.75
2023-05-21T01:46:04.263Z,13.69
2023-05-21T01:47:04.353Z,13.75
2023-05-21T01:48:04.396Z,13.69
2023-05-21T01:49:03.934Z,13.69
2023-05-21T01:51:03.618Z,13.62
2023-05-21T01:53:04.249Z,13.62
2023-05-21T01:54:03.950Z,13.62
2023-05-21T01:55:03.927Z,13.56
2023-05-21T01:56:04.494Z,13.56
2023-05-21T01:57:04.420Z,13.50
2023-05-21T01:58:04.113Z,13.50
2023-05-21T01:59:03.684Z,13.50
2023-05-21T02:00:04.341Z,13.50
2023-05-21T02:01:03.946Z,13.50
2023-05-21T02:02:04.518Z,13.50
2023-05-21T02:03:03.698Z,13.50
2023-05-21T02:04:04.054Z,13.50
2023-05-21T02:05:03.862Z,13.44
2023-05-21T02:07:04.406Z,13.38
2023-05-21T02:09:03.539Z,13.38
2023-05-21T02:10:04.171Z,13.31
2023-05-21T02:11:04.194Z,13.31
2023-05-21T02:13:04.011Z,13.31
2023-05-21T02:14:03.527Z,13.31
2023-05-21T02:16:04.046Z,13.31
2023-05-21T02:17:03.694Z,13.31
2023-05-21T02:19:03.653Z,13.31
2023-05-21T02:20:03.917Z,13.31
2023-05-21T02:21:03.460Z,13.31
2023-05-21T02:24:04.493Z,13.31
2023-05-21T02:26:04.098Z,13.25
2023-05-21T02:29:04.411Z,13.25
2023-05-21T02:30:04.424Z,13.25
2023-05-21T02:31:04.182Z,13.25
2023-05-21T02:33:04.456Z,13.25
2023-05-21T02:35:03.693Z,13.25
2023-05-21T02:36:03.696Z,13.19
2023-05-21T02:37:04.412Z,13.25
2023-05-21T02:39:04.096Z,13.19
2023-05-21T02:40:03.879Z,13.19
2023-05-21T02:42:04.410Z,13.19
2023-05-21T02:43:03.621Z,13.19
2023-05-21T02:44:04.168Z,13.19
2023-05-21T02:45:03.686Z,13.19
2023-05-21T02:47:03.688Z,13.19
2023-05-21T02:48:04.464Z,13.19
2023-05-21T02:50:04.176Z,13.12
2023-05-21T02:52:04.041Z,13.12
2023-05-21T02:53:03.524Z,13.12
2023-05-21T02:54:03.612Z,13.12
2023-05-21T02:55:03.676Z,13.12
2023-05-21T02:56:03.774Z,13.12
2023-05-21T02:57:04.397Z,13.12
2023-05-21T02:58:03.945Z,13.19
2023-05-21T03:01:04.279Z,13.44
2023-05-21T03:03:04.192Z,13.38
2023-05-21T03:04:04.019Z,13.38
2023-05-21T03:05:03.765Z,13.31
2023-05-21T03:06:03.870Z,13.25
2023-05-21T03:07:03.841Z,13.25
2023-05-21T03:08:03.856Z,13.44
2023-05-21T03:09:03.931Z,13.62
2023-05-21T03:10:04.008Z,13.81
2023-05-21T03:11:04.094Z,13.88
2023-05-21T03:12:03.863Z,14.06
2023-05-21T03:14:04.088Z,14.19
2023-05-21T03:15:04.248Z,14.25
2023-05-21T03:16:04.017Z,14.31
2023-05-21T03:17:03.715Z,14.38
2023-05-21T03:18:04.441Z,14.44
2023-05-21T03:19:03.549Z,14.44
2023-05-21T03:20:04.564Z,14.44
2023-05-21T03:22:04.024Z,14.62
2023-05-21T03:23:03.768Z,14.62
2023-05-21T03:25:03.537Z,14.62
2023-05-21T03:26:04.262Z,14.62
2023-05-21T03:27:03.847Z,14.56
2023-05-21T03:29:04.170Z,14.56
2023-05-21T03:30:05.309Z,14.56
2023-05-21T03:33:03.896Z,14.75
2023-05-21T03:34:04.342Z,14.69
2023-05-21T03:36:03.854Z,14.94
2023-05-21T03:38:03.622Z,14.81
2023-05-21T03:39:04.328Z,14.75
2023-05-21T03:40:04.103Z,14.75
2023-05-21T03:41:04.266Z,14.75
2023-05-21T03:42:03.844Z,14.75
2023-05-21T03:43:03.774Z,14.62
2023-05-21T03:44:03.609Z,14.50
2023-05-21T03:45:03.710Z,14.31
2023-05-21T03:46:04.174Z,14.25
2023-05-21T03:47:04.489Z,14.12
2023-05-21T03:50:04.026Z,14.38
2023-05-21T03:52:03.538Z,14.31
2023-05-21T03:53:04.174Z,14.25
2023-05-21T03:54:04.330Z,14.44
2023-05-21T03:55:04.110Z,14.31
2023-05-21T03:56:03.613Z,14.38
2023-05-21T03:57:04.333Z,14.50
2023-05-21T03:58:04.419Z,14.50
2023-05-21T04:00:04.014Z,14.44
2023-05-21T04:01:04.038Z,14.44
2023-05-21T04:02:03.659Z,14.25
2023-05-21T04:03:04.325Z,14.44
2023-05-21T04:04:04.249Z,14.56
2023-05-21T04:05:03.942Z,14.62
2023-05-21T04:06:03.699Z,14.38
2023-05-21T04:08:04.253Z,14.06
2023-05-21T04:09:03.764Z,13.94
2023-05-21T04:11:03.537Z,14.00
2023-05-21T04:12:04.173Z,13.94
2023-05-21T04:14:03.526Z,14.50
2023-05-21T04:15:04.272Z,14.62
2023-05-21T04:16:03.885Z,14.38
2023-05-21T04:17:03.700Z,14.25
2023-05-21T04:18:03.810Z,14.25
2023-05-21T04:20:03.608Z,14.19
2023-05-21T04:21:03.852Z,14.06
2023-05-21T04:23:04.170Z,14.00
2023-05-21T04:24:03.872Z,14.00
2023-05-21T04:25:04.365Z,14.12
2023-05-21T04:27:04.345Z,13.94
2023-05-21T04:29:03.646Z,13.94
2023-05-21T04:30:04.179Z,13.88
2023-05-21T04:31:03.855Z,13.88
2023-05-21T04:32:04.334Z,13.88
2023-05-21T04:33:04.160Z,14.12
2023-05-21T04:34:04.450Z,14.00
2023-05-21T04:36:04.491Z,13.81
2023-05-21T04:37:04.017Z,13.75
2023-05-21T04:38:04.515Z,13.69
2023-05-21T04:39:04.434Z,14.00
2023-05-21T04:40:04.025Z,14.38
2023-05-21T04:41:03.650Z,14.50
2023-05-21T04:42:04.350Z,14.81
2023-05-21T04:45:03.700Z,15.12
2023-05-21T04:46:04.265Z,15.06
2023-05-21T04:47:04.153Z,14.88
2023-05-21T04:49:04.105Z,15.00
2023-05-21T04:50:03.619Z,15.19
2023-05-21T04:51:04.332Z,15.44
2023-05-21T04:52:04.494Z,15.31
2023-05-21T04:53:04.177Z,15.12
2023-05-21T04:54:04.359Z,15.06
2023-05-21T04:56:04.096Z,15.31
2023-05-21T04:57:04.104Z,15.44
2023-05-21T04:58:03.776Z,15.25
2023-05-21T04:59:05.421Z,15.12
2023-05-21T05:00:04.464Z,15.06
2023-05-21T05:02:04.015Z,15.06
2023-05-21T05:04:04.453Z,15.00
2023-05-21T05:07:04.404Z,15.00
2023-05-21T05:08:03.708Z,15.19
2023-05-21T05:09:03.703Z,15.69
2023-05-21T05:12:04.102Z,16.62
2023-05-21T05:13:04.107Z,17.00
2023-05-21T05:14:04.262Z,16.94
2023-05-21T05:16:04.073Z,17.25
2023-05-21T05:17:03.868Z,17.69
2023-05-21T05:18:03.492Z,17.94
2023-05-21T05:19:04.157Z,18.19
2023-05-21T05:20:03.955Z,18.44
2023-05-21T05:21:03.710Z,18.69
2023-05-21T05:23:04.175Z,19.12
2023-05-21T05:24:03.782Z,19.44
2023-05-21T05:25:04.423Z,19.62
2023-05-21T05:27:03.614Z,20.06
2023-05-21T05:28:04.413Z,20.06
2023-05-21T05:31:04.282Z,20.00
2023-05-21T05:32:03.931Z,20.00
2023-05-21T05:33:03.708Z,20.06
2023-05-21T05:34:03.769Z,20.25
2023-05-21T05:35:04.516Z,20.88
2023-05-21T05:36:04.403Z,20.81
2023-05-21T05:37:03.641Z,21.06
2023-05-21T05:38:04.345Z,21.50
2023-05-21T05:39:03.860Z,21.44
2023-05-21T05:41:03.628Z,21.50
2023-05-21T05:42:04.345Z,21.50
2023-05-21T05:43:04.504Z,21.56
2023-05-21T05:44:04.416Z,21.38
2023-05-21T05:45:03.923Z,21.38
2023-05-21T05:46:04.544Z,21.31
2023-05-21T05:47:04.017Z,21.38
2023-05-21T05:48:03.614Z,21.50
2023-05-21T05:49:04.167Z,21.69
2023-05-21T05:50:04.254Z,21.88
2023-05-21T05:52:04.082Z,21.94
2023-05-21T05:53:04.165Z,22.25
2023-05-21T05:54:04.336Z,22.31
2023-05-21T05:56:03.879Z,22.44
2023-05-21T05:58:03.684Z,23.00
2023-05-21T05:59:04.258Z,23.25
2023-05-21T06:00:03.924Z,23.38
2023-05-21T06:01:03.688Z,23.38
2023-05-21T06:02:04.519Z,23.31
2023-05-21T06:03:04.330Z,23.62
2023-05-21T06:04:03.686Z,23.50
2023-05-21T06:06:05.007Z,23.44
2023-05-21T06:07:03.861Z,23.56
2023-05-21T06:09:03.929Z,23.56
2023-05-21T06:10:04.011Z,23.56
2023-05-21T06:11:03.921Z,23.31
2023-05-21T06:12:04.009Z,23.56
2023-05-21T06:13:03.708Z,23.56
2023-05-21T06:15:03.787Z,23.56
2023-05-21T06:16:04.529Z,23.19
2023-05-21T06:18:04.223Z,23.00
2023-05-21T06:20:03.701Z,22.69
2023-05-21T06:21:04.256Z,22.69
2023-05-21T06:24:04.400Z,22.75
2023-05-21T06:26:03.706Z,22.75
2023-05-21T06:27:04.420Z,22.69
2023-05-21T06:29:03.698Z,22.69
2023-05-21T06:30:03.620Z,22.75
2023-05-21T06:31:03.637Z,22.75
2023-05-21T06:32:04.352Z,22.75
2023-05-21T06:33:03.951Z,22.62
2023-05-21T06:34:04.373Z,22.56
2023-05-21T06:36:03.940Z,22.50
2023-05-21T06:37:04.015Z,22.56
2023-05-21T06:38:03.528Z,22.38
2023-05-21T06:39:03.632Z,22.38
2023-05-21T06:40:03.621Z,22.50
2023-05-21T06:42:04.325Z,22.38
2023-05-21T06:43:03.932Z,22.38
2023-05-21T06:45:04.507Z,22.50
2023-05-21T06:46:04.578Z,22.56
2023-05-21T06:48:03.668Z,22.50
2023-05-21T06:49:03.880Z,22.44
2023-05-21T06:51:04.408Z,22.62
2023-05-21T06:53:04.182Z,22.75
2023-05-21T06:54:04.254Z,22.75
2023-05-21T06:55:04.466Z,22.75
2023-05-21T06:56:04.410Z,22.75
2023-05-21T06:57:04.051Z,22.81
2023-05-21T06:58:04.015Z,22.81
2023-05-21T06:59:04.026Z,22.81
2023-05-21T07:01:04.197Z,22.88
2023-05-21T07:02:04.706Z,22.94
2023-05-21T07:04:03.547Z,23.25
2023-05-21T07:05:04.202Z,23.25
2023-05-21T07:07:04.346Z,23.00
2023-05-21T07:08:04.012Z,22.94
2023-05-21T07:09:04.008Z,23.00
2023-05-21T07:10:04.012Z,23.06
2023-05-21T07:11:04.020Z,22.94
2023-05-21T07:13:03.780Z,23.12
2023-05-21T07:14:04.172Z,23.19
2023-05-21T07:15:04.339Z,23.31
2023-05-21T07:17:04.042Z,23.50
2023-05-21T07:18:03.933Z,23.50
2023-05-21T07:19:04.182Z,23.50
2023-05-21T07:21:03.860Z,23.44
2023-05-21T07:22:04.336Z,23.31
2023-05-21T07:23:04.167Z,23.12
2023-05-21T07:24:04.119Z,23.00
2023-05-21T07:26:03.717Z,22.94
2023-05-21T07:27:08.829Z,23.00
2023-05-21T07:30:04.168Z,23.12
2023-05-21T07:31:04.235Z,23.25
2023-05-21T07:33:04.172Z,23.12
2023-05-21T07:34:04.010Z,23.06
2023-05-21T07:35:04.187Z,22.94
2023-05-21T07:36:04.256Z,23.00
2023-05-21T07:37:03.960Z,23.06
2023-05-21T07:38:04.523Z,23.06
2023-05-21T07:40:04.126Z,23.12
2023-05-21T07:41:03.620Z,23.19
2023-05-21T07:42:04.306Z,23.19
2023-05-21T07:43:04.004Z,23.25
2023-05-21T07:45:04.266Z,23.19
2023-05-21T07:46:03.820Z,23.12
2023-05-21T07:47:04.463Z,23.12
2023-05-21T07:48:04.115Z,23.19
2023-05-21T07:49:04.262Z,23.19
2023-05-21T07:50:04.175Z,23.19
2023-05-21T07:53:03.604Z,23.25
2023-05-21T07:54:03.693Z,23.25
2023-05-21T07:55:04.437Z,23.31
2023-05-21T07:56:04.008Z,23.31
2023-05-21T07:58:03.815Z,23.56
2023-05-21T07:59:04.355Z,23.62
2023-05-21T08:00:03.851Z,23.69
2023-05-21T08:01:04.012Z,23.62
2023-05-21T08:02:04.026Z,23.75
2023-05-21T08:03:03.580Z,23.81
2023-05-21T08:04:04.623Z,23.81
2023-05-21T08:06:03.612Z,23.81
2023-05-21T08:07:04.097Z,23.81
2023-05-21T08:09:04.419Z,23.94
2023-05-21T08:10:03.559Z,23.94
2023-05-21T08:11:04.115Z,24.06
2023-05-21T08:12:04.192Z,24.12
2023-05-21T08:14:03.634Z,24.12
2023-05-21T08:15:04.280Z,24.12
2023-05-21T08:16:04.188Z,24.06
2023-05-21T08:18:03.866Z,24.19
2023-05-21T08:19:03.803Z,24.25
2023-05-21T08:20:03.867Z,24.31
2023-05-21T08:21:03.544Z,24.31
2023-05-21T08:22:04.179Z,24.38
2023-05-21T08:23:03.826Z,24.50
2023-05-21T08:24:03.554Z,24.44
2023-05-21T08:25:03.604Z,24.38
2023-05-21T08:27:04.410Z,24.25
2023-05-21T08:29:04.013Z,24.31
2023-05-21T08:30:03.782Z,24.31
2023-05-21T08:31:04.337Z,24.25
2023-05-21T08:32:04.376Z,24.31
2023-05-21T08:33:03.728Z,24.44
2023-05-21T08:34:04.258Z,24.50
2023-05-21T08:36:03.644Z,24.69
2023-05-21T08:37:03.655Z,24.75
2023-05-21T08:38:04.176Z,24.81
2023-05-21T08:40:04.430Z,24.81
2023-05-21T08:42:03.609Z,24.88
2023-05-21T08:43:03.699Z,24.94
2023-05-21T08:44:04.247Z,24.88
2023-05-21T08:46:03.580Z,24.94
2023-05-21T08:47:04.267Z,25.00
2023-05-21T08:49:04.416Z,25.00
2023-05-21T08:50:03.931Z,24.88
2023-05-21T08:52:04.158Z,25.00
2023-05-21T08:53:09.906Z,24.88
2023-05-21T08:55:04.425Z,24.94
2023-05-21T08:56:04.281Z,24.94
2023-05-21T08:57:04.260Z,25.00
2023-05-21T08:58:04.253Z,25.00
2023-05-21T08:59:04.103Z,25.06
2023-05-21T09:01:03.880Z,25.00
2023-05-21T09:02:03.528Z,24.94
2023-05-21T09:03:03.713Z,24.88
2023-05-21T09:04:12.614Z,24.88
2023-05-21T09:05:04.455Z,24.94
2023-05-21T09:06:04.017Z,24.81
2023-05-21T09:07:04.110Z,24.88
2023-05-21T09:08:03.693Z,24.88
2023-05-21T09:09:04.354Z,25.00
2023-05-21T09:10:04.031Z,24.94
2023-05-21T09:12:03.816Z,24.75
2023-05-21T09:14:04.008Z,24.81
2023-05-21T09:15:04.178Z,24.88
2023-05-21T09:16:03.928Z,24.81
2023-05-21T09:18:04.374Z,24.88
2023-05-21T09:19:04.699Z,24.94
2023-05-21T09:20:03.843Z,24.94
2023-05-21T09:22:04.269Z,24.94
2023-05-21T09:23:03.946Z,24.81
2023-05-21T09:25:04.084Z,24.88
2023-05-21T09:27:04.409Z,24.81
2023-05-21T09:28:04.011Z,24.88
2023-05-21T09:30:03.689Z,25.00
2023-05-21T09:31:04.363Z,25.00
2023-05-21T09:32:04.039Z,25.06
2023-05-21T09:33:03.786Z,25.12
2023-05-21T09:34:03.767Z,25.19
2023-05-21T09:35:04.338Z,25.19
2023-05-21T09:36:04.014Z,25.19
2023-05-21T09:37:06.479Z,25.25
2023-05-21T09:38:04.090Z,25.25
2023-05-21T09:39:03.698Z,25.25
2023-05-21T09:41:04.188Z,25.31
2023-05-21T09:42:04.167Z,25.38
2023-05-21T09:43:04.249Z,25.38
2023-05-21T09:44:03.855Z,25.31
2023-05-21T09:45:04.349Z,25.38
2023-05-21T09:47:04.165Z,25.38
2023-05-21T09:48:03.790Z,25.44
2023-05-21T09:50:04.423Z,25.31
2023-05-21T09:51:04.013Z,25.31
2023-05-21T09:52:04.247Z,25.50
2023-05-21T09:53:03.873Z,25.69
2023-05-21T09:54:03.606Z,25.88
2023-05-21T09:55:03.695Z,25.75
2023-05-21T09:56:04.413Z,26.00
2023-05-21T09:58:03.942Z,25.88
2023-05-21T09:59:03.538Z,26.00
2023-05-21T10:00:03.548Z,26.06
2023-05-21T10:02:04.322Z,26.19
2023-05-21T10:03:04.116Z,26.12
2023-05-21T10:04:04.037Z,26.06
2023-05-21T10:05:03.541Z,26.06
2023-05-21T10:06:04.097Z,26.06
2023-05-21T10:07:03.852Z,26.12
2023-05-21T10:08:03.853Z,26.12
2023-05-21T10:09:05.559Z,26.12
2023-05-21T10:11:04.485Z,26.12
2023-05-21T10:13:04.176Z,26.38
2023-05-21T10:14:04.334Z,26.38
2023-05-21T10:15:03.926Z,26.44
2023-05-21T10:16:03.755Z,26.50
2023-05-21T10:18:04.563Z,26.44
2023-05-21T10:19:04.321Z,26.44
2023-05-21T10:21:03.940Z,26.50
2023-05-21T10:23:04.487Z,26.44
2023-05-21T10:25:03.733Z,26.44
2023-05-21T10:26:03.764Z,26.50
2023-05-21T10:27:03.797Z,26.56
2023-05-21T10:28:04.488Z,26.62
2023-05-21T10:30:03.683Z,26.69
2023-05-21T10:31:04.280Z,26.75
2023-05-21T10:32:03.857Z,26.81
2023-05-21T10:33:04.129Z,26.88
2023-05-21T10:34:03.850Z,26.94
2023-05-21T10:35:04.093Z,27.06
2023-05-21T10:36:03.785Z,27.12
2023-05-21T10:37:03.851Z,27.19
2023-05-21T10:38:04.451Z,27.19
2023-05-21T10:40:04.165Z,27.19
2023-05-21T10:41:04.337Z,27.19
2023-05-21T10:42:03.536Z,27.19
2023-05-21T10:45:04.340Z,27.12
2023-05-21T10:47:03.934Z,27.19
2023-05-21T10:48:03.480Z,27.19
2023-05-21T10:50:04.343Z,27.12
2023-05-21T10:52:04.455Z,27.19
2023-05-21T10:53:04.170Z,27.25
2023-05-21T10:54:04.256Z,27.31
2023-05-21T10:55:03.694Z,27.31
2023-05-21T10:56:04.324Z,27.31
2023-05-21T10:57:03.937Z,27.31
2023-05-21T10:59:03.536Z,27.38
2023-05-21T11:00:04.254Z,27.38
2023-05-21T11:01:04.263Z,27.44
2023-05-21T11:02:03.985Z,27.38
2023-05-21T11:03:04.280Z,27.25
2023-05-21T11:04:04.033Z,27.19
2023-05-21T11:06:04.089Z,27.06
2023-05-21T11:07:03.695Z,27.06
2023-05-21T11:08:04.250Z,27.12
2023-05-21T11:09:04.248Z,27.06
2023-05-21T11:10:04.333Z,27.12
2023-05-21T11:12:03.616Z,27.19
2023-05-21T11:14:04.240Z,27.12
2023-05-21T11:15:03.936Z,27.06
2023-05-21T11:17:03.692Z,27.06
2023-05-21T11:19:04.511Z,27.19
2023-05-21T11:20:04.178Z,27.25
2023-05-21T11:21:04.361Z,27.25
2023-05-21T11:23:03.529Z,27.25
2023-05-21T11:24:04.211Z,27.31
2023-05-21T11:25:03.844Z,27.38
2023-05-21T11:26:04.493Z,27.44
2023-05-21T11:27:03.607Z,27.56
2023-05-21T11:28:04.090Z,27.62
2023-05-21T11:29:03.772Z,27.69
2023-05-21T11:31:04.348Z,27.62
2023-05-21T11:32:03.901Z,27.62
2023-05-21T11:33:03.638Z,27.62
2023-05-21T11:34:04.345Z,27.69
2023-05-21T11:35:03.788Z,27.69
2023-05-21T11:36:03.587Z,27.69
2023-05-21T11:38:04.102Z,27.75
2023-05-21T11:39:03.847Z,27.69
2023-05-21T11:40:04.413Z,27.69
2023-05-21T11:41:03.940Z,27.69
2023-05-21T11:42:04.744Z,27.69
2023-05-21T11:43:04.102Z,27.75
2023-05-21T11:45:04.299Z,27.81
2023-05-21T11:46:04.057Z,27.88
2023-05-21T11:47:03.703Z,27.88
2023-05-21T11:48:04.359Z,27.88
2023-05-21T11:49:04.254Z,27.88
2023-05-21T11:50:03.898Z,27.88
2023-05-21T11:52:04.433Z,27.94
2023-05-21T11:53:04.022Z,27.94
2023-05-21T11:55:03.772Z,27.88
2023-05-21T11:56:04.346Z,27.81
2023-05-21T11:57:04.249Z,27.81
2023-05-21T11:58:04.101Z,27.75
2023-05-21T11:59:04.590Z,27.69
2023-05-21T12:00:04.499Z,27.62
2023-05-21T12:01:03.785Z,27.62
2023-05-21T12:02:03.785Z,27.62
2023-05-21T12:03:04.415Z,27.62
2023-05-21T12:05:03.698Z,27.38
2023-05-21T12:06:04.393Z,27.31
2023-05-21T12:08:04.332Z,27.31
2023-05-21T12:09:03.870Z,27.31
2023-05-21T12:11:04.095Z,27.38
2023-05-21T12:12:04.183Z,27.44
2023-05-21T12:13:04.092Z,27.44
2023-05-21T12:14:04.159Z,27.44
2023-05-21T12:15:03.802Z,27.50
2023-05-21T12:16:06.633Z,27.50
2023-05-21T12:17:04.013Z,27.50
2023-05-21T12:18:04.114Z,27.50
2023-05-21T12:19:04.232Z,27.44
2023-05-21T12:20:03.855Z,27.50
2023-05-21T12:21:04.502Z,27.56
2023-05-21T12:23:03.701Z,27.62
2023-05-21T12:24:04.245Z,27.62
2023-05-21T12:25:04.429Z,27.69
2023-05-21T12:26:04.407Z,27.69
2023-05-21T12:27:03.939Z,27.62
2023-05-21T12:28:04.106Z,27.56
2023-05-21T12:29:04.114Z,27.56
2023-05-21T12:31:04.263Z,27.56
2023-05-21T12:32:03.948Z,27.62
2023-05-21T12:33:03.649Z,27.62
2023-05-21T12:34:03.775Z,27.56
2023-05-21T12:35:03.708Z,27.56
2023-05-21T12:37:04.411Z,27.56
2023-05-21T12:38:04.447Z,27.56
2023-05-21T12:40:04.194Z,27.50
2023-05-21T12:42:04.256Z,27.56
2023-05-21T12:43:04.097Z,27.56
2023-05-21T12:44:03.922Z,27.56
2023-05-21T12:45:04.025Z,27.50
2023-05-21T12:46:04.218Z,27.50
2023-05-21T12:47:04.326Z,27.44
2023-05-21T12:49:04.192Z,27.31
2023-05-21T12:50:03.909Z,27.31
2023-05-21T12:51:03.972Z,27.31
2023-05-21T12:52:04.038Z,27.19
2023-05-21T12:53:03.624Z,27.25
2023-05-21T12:54:04.213Z,27.31
2023-05-21T12:55:03.844Z,27.31
2023-05-21T12:56:03.439Z,27.31
2023-05-21T12:58:04.120Z,27.25
2023-05-21T12:59:03.931Z,27.25
2023-05-21T13:00:03.934Z,27.25
2023-05-21T13:01:05.316Z,27.31
2023-05-21T13:02:04.449Z,27.31
2023-05-21T13:03:04.423Z,27.38
2023-05-21T13:05:03.859Z,27.31
2023-05-21T13:06:04.410Z,27.31
2023-05-21T13:07:04.978Z,27.25
2023-05-21T13:08:03.695Z,27.25
2023-05-21T13:09:04.502Z,27.25
2023-05-21T13:11:04.338Z,27.38
2023-05-21T13:12:04.031Z,27.38
2023-05-21T13:13:04.102Z,27.44
2023-05-21T13:14:03.784Z,27.44
2023-05-21T13:15:04.275Z,27.50
2023-05-21T13:17:03.704Z,27.81
2023-05-21T13:19:03.581Z,28.31
2023-05-21T13:20:04.190Z,28.38
2023-05-21T13:21:03.691Z,28.31
2023-05-21T13:22:04.431Z,28.12
2023-05-21T13:23:05.637Z,28.06
2023-05-21T13:24:03.771Z,28.06
2023-05-21T13:26:03.618Z,28.19
2023-05-21T13:27:03.657Z,28.38
2023-05-21T13:29:03.871Z,28.12
2023-05-21T13:31:03.548Z,28.06
2023-05-21T13:32:04.116Z,28.00
2023-05-21T13:33:04.119Z,27.88
2023-05-21T13:34:05.551Z,28.12
2023-05-21T13:36:04.339Z,28.06
2023-05-21T13:37:04.030Z,27.94
2023-05-21T13:39:03.533Z,27.75
2023-05-21T13:40:04.258Z,27.88
2023-05-21T13:41:04.338Z,28.00
2023-05-21T13:42:03.940Z,28.06
2023-05-21T13:43:04.018Z,28.00
2023-05-21T13:44:04.100Z,27.94
2023-05-21T13:45:03.536Z,27.94
2023-05-21T13:47:04.242Z,27.88
2023-05-21T13:48:04.122Z,27.88
2023-05-21T13:49:04.501Z,28.00
2023-05-21T13:50:04.102Z,27.94
2023-05-21T13:51:03.696Z,27.81
2023-05-21T13:52:04.342Z,27.81
2023-05-21T13:53:04.354Z,27.75
2023-05-21T13:54:03.855Z,27.69
2023-05-21T13:55:04.449Z,27.50
2023-05-21T13:58:04.272Z,27.56
2023-05-21T13:59:03.872Z,27.62
2023-05-21T14:00:04.330Z,27.62
2023-05-21T14:01:03.729Z,27.62
2023-05-21T14:02:04.394Z,27.69
2023-05-21T14:03:04.011Z,27.69
2023-05-21T14:04:03.856Z,27.69
2023-05-21T14:05:04.438Z,27.56
2023-05-21T14:06:04.086Z,27.56
2023-05-21T14:07:04.434Z,27.56
2023-05-21T14:08:04.439Z,27.56
2023-05-21T14:09:03.930Z,27.69
2023-05-21T14:10:04.172Z,27.75
2023-05-21T14:11:04.910Z,27.88
2023-05-21T14:12:05.665Z,27.88
2023-05-21T14:13:11.715Z,27.75
2023-05-21T14:14:03.706Z,27.69
2023-05-21T14:15:03.644Z,27.62
2023-05-21T14:16:03.676Z,27.56
2023-05-21T14:18:03.933Z,27.44
2023-05-21T14:19:03.755Z,27.38
2023-05-21T14:21:03.617Z,27.44
2023-05-21T14:23:04.255Z,27.44
2023-05-21T14:24:04.021Z,27.38
2023-05-21T14:25:04.425Z,27.38
2023-05-21T14:26:04.003Z,27.44
2023-05-21T14:28:04.336Z,27.38
2023-05-21T14:29:03.932Z,27.31
2023-05-21T14:31:04.333Z,27.31
2023-05-21T14:33:03.601Z,27.44
2023-05-21T14:34:04.270Z,27.44
2023-05-21T14:35:04.330Z,27.44
2023-05-21T14:36:03.932Z,27.62
2023-05-21T14:37:03.544Z,27.81
2023-05-21T14:38:04.254Z,27.94
2023-05-21T14:39:03.882Z,28.06
2023-05-21T14:41:04.423Z,28.06
2023-05-21T14:42:04.429Z,27.94
2023-05-21T14:44:03.693Z,27.81
2023-05-21T14:45:17.315Z,27.75
2023-05-21T14:46:04.294Z,27.69
2023-05-21T14:48:04.530Z,27.56
2023-05-21T14:49:03.631Z,27.56
2023-05-21T14:50:03.681Z,27.56
2023-05-21T14:51:03.625Z,27.56
2023-05-21T14:52:04.342Z,27.62
2023-05-21T14:54:04.093Z,27.56
2023-05-21T14:56:04.336Z,27.56
2023-05-21T14:59:04.256Z,27.62
2023-05-21T15:01:03.573Z,27.62
2023-05-21T15:02:03.562Z,27.69
2023-05-21T15:03:03.852Z,27.69
2023-05-21T15:04:04.603Z,27.69
2023-05-21T15:05:03.959Z,27.62
2023-05-21T15:06:04.422Z,27.56
2023-05-21T15:08:03.686Z,27.44
2023-05-21T15:09:04.393Z,27.50
2023-05-21T15:10:04.536Z,27.44
2023-05-21T15:11:04.122Z,27.38
2023-05-21T15:12:03.851Z,27.38
2023-05-21T15:15:04.085Z,27.44
2023-05-21T15:16:03.924Z,27.38
2023-05-21T15:17:03.604Z,27.44
2023-05-21T15:18:04.306Z,27.44
2023-05-21T15:19:03.606Z,27.38
2023-05-21T15:20:04.017Z,27.31
2023-05-21T15:21:03.603Z,27.25
2023-05-21T15:22:04.324Z,27.25
2023-05-21T15:24:04.087Z,27.19
2023-05-21T15:25:04.174Z,27.19
2023-05-21T15:26:03.937Z,27.19
2023-05-21T15:28:03.548Z,27.19
2023-05-21T15:30:04.010Z,27.25
2023-05-21T15:31:03.698Z,27.50
2023-05-21T15:33:04.410Z,27.50
2023-05-21T15:35:03.764Z,27.31
2023-05-21T15:36:04.547Z,27.31
2023-05-21T15:37:04.169Z,27.25
2023-05-21T15:38:03.611Z,27.19
2023-05-21T15:39:04.115Z,27.12
2023-05-21T15:40:03.841Z,27.12
2023-05-21T15:41:04.502Z,27.12
2023-05-21T15:42:03.707Z,27.12
2023-05-21T15:43:04.258Z,27.12
2023-05-21T15:44:04.334Z,27.06
2023-05-21T15:45:04.031Z,27.12
2023-05-21T15:46:04.000Z,27.06
2023-05-21T15:47:04.145Z,27.06
2023-05-21T15:49:04.077Z,27.00
2023-05-21T15:50:04.095Z,27.00
2023-05-21T15:51:03.696Z,26.94
2023-05-21T15:55:04.356Z,26.69
2023-05-21T15:57:04.417Z,26.81
2023-05-21T15:58:04.036Z,26.75
2023-05-21T15:59:04.091Z,26.81
2023-05-21T16:01:03.894Z,26.75
2023-05-21T16:02:03.940Z,26.75
2023-05-21T16:03:03.794Z,26.75
2023-05-21T16:04:03.661Z,26.75
2023-05-21T16:05:04.274Z,26.62
2023-05-21T16:06:03.851Z,26.62
2023-05-21T16:08:04.011Z,26.56
2023-05-21T16:09:04.021Z,26.62
2023-05-21T16:10:03.546Z,26.56
2023-05-21T16:11:03.700Z,26.50
2023-05-21T16:12:03.706Z,26.50
2023-05-21T16:13:04.163Z,26.44
2023-05-21T16:16:03.451Z,26.38
2023-05-21T16:18:04.517Z,26.31
2023-05-21T16:19:04.282Z,26.50
2023-05-21T16:20:03.705Z,26.62
2023-05-21T16:21:04.487Z,26.75
2023-05-21T16:23:03.923Z,26.81
2023-05-21T16:24:04.098Z,26.69
2023-05-21T16:26:04.171Z,26.75
2023-05-21T16:27:04.260Z,26.69
2023-05-21T16:28:03.697Z,26.56
2023-05-21T16:29:04.355Z,26.50
2023-05-21T16:30:03.860Z,26.38
2023-05-21T16:31:03.780Z,26.38
2023-05-21T16:32:03.945Z,26.31
2023-05-21T16:33:03.682Z,26.25
2023-05-21T16:34:03.860Z,26.19